logo tempoitalia

Diretta Meteo Oberpfaffenhofen, Germanialunedì 31 agosto ore 07:20

Mappa
Sereno 17 °C Sereno 24 Ore: T.min 15 T.max 26
Ponente Sud-Ovest Km/h 20.3 Punto di rugiada: 14 °C Umidità: 82% Visibilità: 10 Km
Il sole sorge alle: 06:31 Il sole tramonta alle: 19:58
31 Agosto 2026 07:20 tempo osservato: Sereno Sereno 17 82 1017 vento: Nord SO 20.3
31 Agosto 2026 06:50 tempo osservato: Sereno Sereno 16 87 1017 vento: Nord SO 16.7
31 Agosto 2026 06:20 tempo osservato: Sereno Sereno 17 88 1017 vento: Nord SO 18.5
31 Agosto 2026 05:50 tempo osservato: Pioggia Pioggia 16 93 1017 vento: Nord SO 16.7
31 Agosto 2026 05:20 tempo osservato: Molto Nuvoloso Molto Nuvoloso 17 88 1017 vento: Nord O/SO 13
31 Agosto 2026 04:50 tempo osservato: Pioggia Pioggia 17 88 1018 vento: Nord O 31.5
31 Agosto 2026 04:20 tempo osservato: Sereno Sereno 17 88 1015 vento: Nord S 7.4
31 Agosto 2026 03:50 tempo osservato: Pioggia nelle vicinanze Pioggia nelle vicinanze 18 82 1015 vento: Nord N 3.7
31 Agosto 2026 03:20 tempo osservato: Sereno Sereno 18 82 1015 vento: Nord N 3.7
31 Agosto 2026 02:50 tempo osservato: Sereno Sereno 18 82 1015 vento: Nord N 5.5
31 Agosto 2026 02:20 tempo osservato: Sereno Sereno 17 88 1016 vento: Nord S/SE 7.4
31 Agosto 2026 01:50 tempo osservato: Sereno Sereno 16 93 1016 vento: Nord N 5.5
31 Agosto 2026 01:20 tempo osservato: Sereno Sereno 15 93 1016 vento: Nord N 3.7
31 Agosto 2026 00:50 tempo osservato: Sereno Sereno 16 87 1016 vento: Nord N 1.8
31 Agosto 2026 00:20 tempo osservato: Sereno Sereno 16 87 1017 vento: Nord N 5.5
30 Agosto 2026 23:50 tempo osservato: Sereno Sereno 18 82 1017 vento: Nord N 3.7
30 Agosto 2026 23:20 tempo osservato: Sereno Sereno 18 82 1017 vento: Nord N 5.5
30 Agosto 2026 22:50 tempo osservato: Sereno Sereno 18 88 1017 vento: Nord N 5.5
30 Agosto 2026 22:20 tempo osservato: Sereno Sereno 18 82 1017 vento: Nord N 5.5
30 Agosto 2026 21:50 tempo osservato: Sereno Sereno 18 82 1017 vento: Nord N 5.5
30 Agosto 2026 21:20 tempo osservato: Sereno Sereno 19 77 1017 vento: Nord N 5.5
30 Agosto 2026 20:50 tempo osservato: Sereno Sereno 18 82 1017 vento: Nord S 7.4
30 Agosto 2026 20:20 tempo osservato: Sereno Sereno 21 64 1016 vento: Nord S/SO 7.4
30 Agosto 2026 19:50 tempo osservato: Sereno Sereno 22 60 1016 vento: Nord SO 9.3
30 Agosto 2026 19:20 tempo osservato: Sereno Sereno 24 57 1016 vento: Nord SO 11.1
30 Agosto 2026 18:50 tempo osservato: Sereno Sereno 24 60 1016 vento: Nord O/SO 7.4
30 Agosto 2026 18:20 tempo osservato: Sereno Sereno 24 57 1016 vento: Nord O 7.4
30 Agosto 2026 17:50 tempo osservato: Sereno Sereno 25 50 1016 vento: Nord O 11.1
30 Agosto 2026 17:20 tempo osservato: Poco Nuvoloso Poco Nuvoloso 26 47 1016 vento: Nord N 5.5
30 Agosto 2026 16:50 tempo osservato: Poco Nuvoloso Poco Nuvoloso 25 50 1016 vento: Nord O/NO 9.3
30 Agosto 2026 16:20 tempo osservato: Poco Nuvoloso Poco Nuvoloso 26 47 1016 vento: Nord N 3.7
30 Agosto 2026 15:50 tempo osservato: Poco Nuvoloso Poco Nuvoloso 25 47 1017 vento: Nord O 14.8
30 Agosto 2026 15:20 tempo osservato: Nuvoloso Nuvoloso 26 44 1017 vento: Nord SO 9.3
30 Agosto 2026 14:50 tempo osservato: Poco Nuvoloso Poco Nuvoloso 26 47 1017 vento: Nord SO 16.7
30 Agosto 2026 14:20 tempo osservato: Poco Nuvoloso Poco Nuvoloso 26 47 1017 vento: Nord SO 13
30 Agosto 2026 13:50 tempo osservato: Poco Nuvoloso Poco Nuvoloso 25 47 1017 vento: Nord SO 13
30 Agosto 2026 13:20 tempo osservato: Poco Nuvoloso Poco Nuvoloso 25 47 1017 vento: Nord O 11.1
30 Agosto 2026 12:50 tempo osservato: Sereno Sereno 24 50 1018 vento: Nord O/SO 14.8
30 Agosto 2026 12:20 tempo osservato: Sereno Sereno 24 53 1018 vento: Nord SO 13
30 Agosto 2026 11:50 tempo osservato: Sereno Sereno 23 56 1018 vento: Nord O 14.8
30 Agosto 2026 11:20 tempo osservato: Sereno Sereno 23 56 1018 vento: Nord O/SO 14.8
30 Agosto 2026 10:50 tempo osservato: Sereno Sereno 22 56 1018 vento: Nord O/SO 13
30 Agosto 2026 10:20 tempo osservato: Sereno Sereno 22 60 1018 vento: Nord SO 16.7
30 Agosto 2026 09:50 tempo osservato: Sereno Sereno 21 60 1018 vento: Nord SO 14.8
30 Agosto 2026 09:20 tempo osservato: Sereno Sereno 19 72 1019 vento: Nord S/SO 9.3
30 Agosto 2026 08:50 tempo osservato: Sereno Sereno 19 77 1018 vento: Nord N 5.5
30 Agosto 2026 08:20 tempo osservato: Coperto Coperto 18 77 1018 vento: Nord SO 7.4
30 Agosto 2026 07:50 tempo osservato: Coperto Coperto 18 82 1018 vento: Nord SO 9.3